map of WHP home
WHP - Airport
Location
City:  Los Angeles, California, United States
Name:Whiteman Airport
ICAO:KWHP
IATA:WHP
FAA LID:WHP

Details
Type:Airport (Airfield)
Use:Public/Civil
Latitude:3415'34"N (34.259325)
Longitude:11824'48"W (-118.413432)
Datum:WGS 1984
Elevation:1003 ft (306 m)
Variation:12.07E (WMM2015 magnetic declination)
-0.09 annual change
Runways:1
Longest:4120 × 75 ft (1256 × 23 m), paved

Time
Time Zone:UTC-8 (DST-7)
Local Time:

Weather
METAR:KWHP 130355Z 00000KT 10SM SKC 19/M17 A3009 RMK LAST

Related Locations
Nearby:
Farthest:ZSE: 11465 mi / 18452 km
St-Pierre (St-Pierre de la Runion) [Pierrefonds], RE

Find:

   beyond  
but within

Other Information
Maps:
NOTAMs:
Links:
Sources:

  
flag of United States
flag of California
flag of Los Angeles
  

Airport Diagram

Airport diagram for WHP

Airport diagram PDF

Sectional Chart

Flight Planning
at skyvector.com

Satellite Image

Google Maps Satellite view

 

Copyright © 2004-2017 Karl L. Swartz. All rights reserved.
The Great Circle Mapper name and logo are trademarks of the Great Circle Mapper.
All other trademarks mentioned herein belong to their respective owners.
Please see credits for attibutions and further copyright information.

  Follow gcmap on Facebook Follow gcmap on Twitter Follow gcmap on Google+ GCmap on LinkedIn

hCard Microformat

Geo Microformat